Time;durP1;ratioP1;P1;durP2;ratioP2;P2;SDS_P1;SDS_P2;PMS_P1;PMS_P2;Temp;Humidity;BMP_temperature;BMP_pressure;BME280_temperature;BME280_humidity;BME280_pressure;Samples;Min_cycle;Max_cycle;Signal;HPM_P1;HPM_P2
2022/06/26 00:01:08;;;;;;;6.43;4.50;;;;;;;;;;5034492;28;20968;-56
2022/06/26 00:03:34;;;;;;;9.33;4.97;;;;;;;;;;5035066;28;20400;-57
2022/06/26 00:06:00;;;;;;;4.67;4.37;;;;;;;;;;5034728;28;20533;-56
2022/06/26 00:08:28;;;;;;;5.30;4.80;;;;;;;;;;5034866;28;20489;-55
2022/06/26 00:10:57;;;;;;;4.53;4.20;;;;;;;;;;5034362;28;20450;-57
2022/06/26 00:13:23;;;;;;;6.47;5.10;;;;;;;;;;5034704;28;20439;-56
2022/06/26 00:15:49;;;;;;;4.90;4.50;;;;;;;;;;5034908;28;20484;-57
2022/06/26 00:18:15;;;;;;;6.87;5.90;;;;;;;;;;5034718;28;20473;-57
2022/06/26 00:20:41;;;;;;;9.53;8.67;;;;;;;;;;5034327;28;20417;-57
2022/06/26 00:23:08;;;;;;;17.40;9.20;;;;;;;;;;5034449;28;20418;-58
2022/06/26 00:25:34;;;;;;;9.90;8.17;;;;;;;;;;5034491;28;20502;-57
2022/06/26 00:28:00;;;;;;;10.60;9.60;;;;;;;;;;5034501;28;20443;-58
2022/06/26 00:30:26;;;;;;;11.60;9.47;;;;;;;;;;5034092;28;20438;-57
2022/06/26 00:32:52;;;;;;;12.83;11.63;;;;;;;;;;5034439;28;20453;-66
2022/06/26 00:35:18;;;;;;;15.00;12.43;;;;;;;;;;5033864;28;20779;-58
2022/06/26 00:37:44;;;;;;;12.70;11.40;;;;;;;;;;5034243;28;20823;-58
2022/06/26 00:40:13;;;;;;;16.13;12.73;;;;;;;;;;5033898;28;20399;-57
2022/06/26 00:42:42;;;;;;;11.73;10.73;;;;;;;;;;5034193;28;20426;-58
2022/06/26 00:45:08;;;;;;;12.83;11.50;;;;;;;;;;5034354;28;20405;-58
2022/06/26 00:47:34;;;;;;;11.30;10.20;;;;;;;;;;5032884;28;20910;-58
2022/06/26 00:50:01;;;;;;;11.80;8.57;;;;;;;;;;5034075;28;20398;-58
2022/06/26 00:52:27;;;;;;;9.73;8.50;;;;;;;;;;5033680;28;20466;-58
2022/06/26 00:54:56;;;;;;;12.70;8.70;;;;;;;;;;5033948;28;20406;-58
2022/06/26 00:57:25;;;;;;;13.60;8.27;;;;;;;;;;5033937;28;20440;-58
2022/06/26 00:59:51;;;;;;;10.03;9.03;;;;;;;;;;5033871;28;20398;-58
2022/06/26 01:02:17;;;;;;;10.17;7.83;;;;;;;;;;5033074;28;20450;-58
2022/06/26 01:04:43;;;;;;;10.20;8.67;;;;;;;;;;5033274;28;20409;-58
2022/06/26 01:07:10;;;;;;;11.30;7.80;;;;;;;;;;5033286;28;20453;-58
2022/06/26 01:09:36;;;;;;;8.30;7.50;;;;;;;;;;5033515;28;20430;-58
2022/06/26 01:12:02;;;;;;;7.77;6.97;;;;;;;;;;5033401;28;20467;-58
2022/06/26 01:14:30;;;;;;;9.43;7.43;;;;;;;;;;5033822;28;20402;-58
2022/06/26 01:16:56;;;;;;;12.90;9.40;;;;;;;;;;5033640;28;20429;-58
2022/06/26 01:19:25;;;;;;;9.50;7.93;;;;;;;;;;5033529;28;20452;-58
2022/06/26 01:21:51;;;;;;;9.63;8.67;;;;;;;;;;5033109;28;20893;-58
2022/06/26 01:24:17;;;;;;;10.17;8.93;;;;;;;;;;5033473;28;20406;-58
2022/06/26 01:26:43;;;;;;;8.27;7.47;;;;;;;;;;5033390;28;20512;-58
2022/06/26 01:29:09;;;;;;;8.97;8.07;;;;;;;;;;5033372;28;20402;-58
2022/06/26 01:31:36;;;;;;;10.07;9.13;;;;;;;;;;5032971;28;20876;-58
2022/06/26 01:34:06;;;;;;;9.17;8.37;;;;;;;;;;5033259;28;20485;-58
2022/06/26 01:36:32;;;;;;;7.70;7.00;;;;;;;;;;5033134;28;20481;-58
2022/06/26 01:38:58;;;;;;;9.97;8.80;;;;;;;;;;5033164;28;20402;-58
2022/06/26 01:41:24;;;;;;;9.63;8.53;;;;;;;;;;5032975;28;20426;-58
2022/06/26 01:43:50;;;;;;;10.37;7.67;;;;;;;;;;5033086;28;20486;-58
2022/06/26 01:46:16;;;;;;;9.30;8.30;;;;;;;;;;5032820;28;20439;-58
2022/06/26 01:48:43;;;;;;;9.53;8.53;;;;;;;;;;5032257;28;20952;-57
2022/06/26 01:51:09;;;;;;;8.00;7.30;;;;;;;;;;5032489;28;20453;-57
2022/06/26 01:53:36;;;;;;;17.53;9.40;;;;;;;;;;5033053;28;20859;-58
2022/06/26 01:56:03;;;;;;;8.77;7.67;;;;;;;;;;5032864;28;20404;-58
2022/06/26 01:58:29;;;;;;;9.73;7.53;;;;;;;;;;5032812;28;20410;-58
2022/06/26 02:00:58;;;;;;;8.93;8.13;;;;;;;;;;5032379;28;20381;-58
2022/06/26 02:03:27;;;;;;;9.60;8.00;;;;;;;;;;5032668;28;20472;-58
2022/06/26 02:05:53;;;;;;;8.57;7.60;;;;;;;;;;5032725;28;20529;-58
2022/06/26 02:08:19;;;;;;;9.47;7.00;;;;;;;;;;5032953;28;20933;-58
2022/06/26 02:13:36;;;;;;;8.23;7.17;;;;;;;;;;5032579;28;20402;-58
2022/06/26 02:16:07;;;;;;;9.80;8.87;;;;;;;;;;5032464;28;20523;-58
2022/06/26 02:18:33;;;;;;;8.47;7.67;;;;;;;;;;5032467;28;20393;-58
2022/06/26 02:20:59;;;;;;;8.40;7.60;;;;;;;;;;5031974;28;20400;-58
2022/06/26 02:23:28;;;;;;;7.50;6.80;;;;;;;;;;5032398;28;20415;-58
2022/06/26 02:25:55;;;;;;;8.43;7.60;;;;;;;;;;5032322;28;20460;-58
2022/06/26 02:28:24;;;;;;;8.70;7.80;;;;;;;;;;5032290;28;20412;-58
2022/06/26 02:30:50;;;;;;;9.07;7.57;;;;;;;;;;5031752;28;20456;-58
2022/06/26 02:33:16;;;;;;;8.80;8.00;;;;;;;;;;5032219;28;20885;-58
2022/06/26 02:35:42;;;;;;;12.17;8.40;;;;;;;;;;5032044;28;20394;-58
2022/06/26 02:38:08;;;;;;;9.07;7.50;;;;;;;;;;5032115;28;20435;-58
2022/06/26 02:40:34;;;;;;;8.70;7.60;;;;;;;;;;5031872;28;20397;-58
2022/06/26 02:43:00;;;;;;;7.50;6.90;;;;;;;;;;5031950;28;21047;-58
2022/06/26 02:45:26;;;;;;;9.07;7.60;;;;;;;;;;5032006;28;20488;-58
2022/06/26 02:47:52;;;;;;;9.70;8.67;;;;;;;;;;5031979;28;20427;-58
2022/06/26 02:50:18;;;;;;;11.43;10.33;;;;;;;;;;5031695;28;20401;-58
2022/06/26 02:52:44;;;;;;;8.27;7.60;;;;;;;;;;5031884;28;20452;-58
2022/06/26 02:55:11;;;;;;;8.87;8.07;;;;;;;;;;5031885;28;20390;-58
2022/06/26 02:57:38;;;;;;;9.93;7.73;;;;;;;;;;5031800;28;20436;-58
2022/06/26 03:00:05;;;;;;;10.17;8.27;;;;;;;;;;5031462;28;20436;-58
2022/06/26 03:02:31;;;;;;;8.27;7.33;;;;;;;;;;5031616;28;20445;-58
2022/06/26 03:04:57;;;;;;;8.50;7.00;;;;;;;;;;5031776;28;20455;-58
2022/06/26 03:07:23;;;;;;;8.30;7.50;;;;;;;;;;5032077;28;20820;-58
2022/06/26 03:09:52;;;;;;;10.10;6.73;;;;;;;;;;5031681;28;20408;-58
2022/06/26 03:12:18;;;;;;;7.87;7.10;;;;;;;;;;5031239;28;20460;-58
2022/06/26 03:14:44;;;;;;;10.77;6.57;;;;;;;;;;5031718;28;20913;-58
2022/06/26 03:17:10;;;;;;;9.37;7.10;;;;;;;;;;5031638;28;20409;-58
2022/06/26 03:19:38;;;;;;;7.33;6.63;;;;;;;;;;5031544;28;20893;-59
2022/06/26 03:22:05;;;;;;;9.17;8.27;;;;;;;;;;5031374;28;20436;-59
2022/06/26 03:24:31;;;;;;;7.73;6.93;;;;;;;;;;5031612;28;20405;-58
2022/06/26 03:27:00;;;;;;;10.40;7.00;;;;;;;;;;5031519;28;20824;-58
2022/06/26 03:29:26;;;;;;;9.10;7.70;;;;;;;;;;5031775;28;20450;-58
2022/06/26 03:31:52;;;;;;;7.73;7.03;;;;;;;;;;5031381;28;20463;-58
2022/06/26 03:34:19;;;;;;;7.30;6.63;;;;;;;;;;5031836;28;20413;-59
2022/06/26 03:36:45;;;;;;;8.90;8.00;;;;;;;;;;5031536;28;20404;-58
2022/06/26 03:39:11;;;;;;;9.00;8.20;;;;;;;;;;5031530;28;20416;-58
2022/06/26 03:41:37;;;;;;;11.23;10.07;;;;;;;;;;5031159;28;20827;-58
2022/06/26 03:44:03;;;;;;;14.40;10.97;;;;;;;;;;5031453;28;20411;-58
2022/06/26 03:46:29;;;;;;;15.10;11.10;;;;;;;;;;5031493;28;20408;-58
2022/06/26 03:48:55;;;;;;;17.37;12.20;;;;;;;;;;5031345;28;20383;-58
2022/06/26 03:51:21;;;;;;;16.93;13.00;;;;;;;;;;5030982;28;20550;-58
2022/06/26 03:53:47;;;;;;;19.57;13.50;;;;;;;;;;5031218;28;20501;-58
2022/06/26 03:56:17;;;;;;;13.70;12.30;;;;;;;;;;5031410;28;20911;-58
2022/06/26 03:58:46;;;;;;;15.80;11.90;;;;;;;;;;5031335;28;20607;-58
2022/06/26 04:01:11;;;;;;;11.73;10.33;;;;;;;;;;5030796;28;20421;-58
2022/06/26 04:03:39;;;;;;;16.00;10.10;;;;;;;;;;5031264;28;20383;-58
2022/06/26 04:06:04;;;;;;;12.20;10.50;;;;;;;;;;5031273;28;20825;-58
2022/06/26 04:08:30;;;;;;;13.63;11.10;;;;;;;;;;5031212;28;20404;-58
2022/06/26 04:10:56;;;;;;;15.60;11.43;;;;;;;;;;5032233;28;20822;-58
2022/06/26 04:13:22;;;;;;;15.63;11.70;;;;;;;;;;5033702;28;20429;-58
2022/06/26 04:15:48;;;;;;;13.33;11.40;;;;;;;;;;5034719;28;20539;-58
2022/06/26 04:18:14;;;;;;;14.03;10.90;;;;;;;;;;5034699;28;20413;-58
2022/06/26 04:20:40;;;;;;;12.47;11.13;;;;;;;;;;5034400;28;20412;-58
2022/06/26 04:23:08;;;;;;;16.60;11.40;;;;;;;;;;5034479;28;20952;-58
2022/06/26 04:25:36;;;;;;;13.80;11.37;;;;;;;;;;5034602;28;20498;-58
2022/06/26 04:28:05;;;;;;;12.93;11.20;;;;;;;;;;5034735;28;20484;-57
2022/06/26 04:30:34;;;;;;;11.60;10.40;;;;;;;;;;5034181;28;20386;-58
2022/06/26 04:33:00;;;;;;;14.27;10.90;;;;;;;;;;5035347;28;20445;-58
2022/06/26 04:35:26;;;;;;;11.00;9.90;;;;;;;;;;5034392;28;20450;-57
2022/06/26 04:37:52;;;;;;;13.80;10.40;;;;;;;;;;5034327;28;20396;-58
2022/06/26 04:40:18;;;;;;;10.63;9.53;;;;;;;;;;5034040;28;20901;-58
2022/06/26 04:42:44;;;;;;;13.30;10.10;;;;;;;;;;5034187;28;20421;-58
2022/06/26 04:45:14;;;;;;;13.83;10.53;;;;;;;;;;5034253;28;20460;-58
2022/06/26 04:47:40;;;;;;;10.43;9.07;;;;;;;;;;5034187;28;20418;-58
2022/06/26 04:50:07;;;;;;;12.20;9.20;;;;;;;;;;5033953;28;20738;-58
2022/06/26 04:52:33;;;;;;;10.37;8.30;;;;;;;;;;5034127;28;20461;-58
2022/06/26 04:54:59;;;;;;;11.30;9.63;;;;;;;;;;5034058;28;20405;-58
2022/06/26 04:57:28;;;;;;;12.93;9.57;;;;;;;;;;5034141;28;20437;-58
2022/06/26 04:59:54;;;;;;;10.33;9.33;;;;;;;;;;5033898;28;20415;-58
2022/06/26 05:02:20;;;;;;;10.23;8.10;;;;;;;;;;5033904;28;20813;-58
2022/06/26 05:04:46;;;;;;;9.20;8.30;;;;;;;;;;5033799;28;20905;-57
2022/06/26 05:07:12;;;;;;;9.60;7.60;;;;;;;;;;5034085;28;20454;-58
2022/06/26 05:09:38;;;;;;;9.47;8.03;;;;;;;;;;5033792;28;20413;-58
2022/06/26 05:12:04;;;;;;;8.73;7.13;;;;;;;;;;5033393;28;20535;-58
2022/06/26 05:14:31;;;;;;;7.90;6.83;;;;;;;;;;5033739;28;20778;-59
2022/06/26 05:16:57;;;;;;;12.97;6.83;;;;;;;;;;5033546;28;20397;-58
2022/06/26 05:19:23;;;;;;;12.53;6.37;;;;;;;;;;5033454;28;20901;-58
2022/06/26 05:21:49;;;;;;;7.37;5.60;;;;;;;;;;5033085;28;20468;-58
2022/06/26 05:24:15;;;;;;;8.40;6.10;;;;;;;;;;5033556;28;20410;-58
2022/06/26 05:26:41;;;;;;;6.80;6.10;;;;;;;;;;5033531;28;20411;-58
2022/06/26 05:29:07;;;;;;;5.97;5.47;;;;;;;;;;5033370;28;20803;-58
2022/06/26 05:31:33;;;;;;;5.27;4.73;;;;;;;;;;5033027;28;20541;-58
2022/06/26 05:33:59;;;;;;;6.00;4.87;;;;;;;;;;5033225;28;20398;-57
2022/06/26 05:36:25;;;;;;;4.33;3.97;;;;;;;;;;5033224;28;20406;-57
2022/06/26 05:38:51;;;;;;;5.20;4.30;;;;;;;;;;5033497;28;20410;-58
2022/06/26 05:41:17;;;;;;;5.07;4.67;;;;;;;;;;5032868;28;20792;-59
2022/06/26 05:43:44;;;;;;;9.10;5.00;;;;;;;;;;5033307;28;20402;-58
2022/06/26 05:46:11;;;;;;;9.60;5.27;;;;;;;;;;5033026;28;20441;-58
2022/06/26 05:48:37;;;;;;;5.23;4.83;;;;;;;;;;5032987;28;20436;-58
2022/06/26 05:51:03;;;;;;;5.73;5.30;;;;;;;;;;5032548;28;20497;-57
2022/06/26 05:53:29;;;;;;;5.40;5.00;;;;;;;;;;5032956;28;20456;-57
2022/06/26 05:55:55;;;;;;;6.07;5.63;;;;;;;;;;5033231;28;20868;-58
2022/06/26 05:58:21;;;;;;;4.20;3.90;;;;;;;;;;5032948;28;20404;-58
2022/06/26 06:00:47;;;;;;;7.80;5.77;;;;;;;;;;5032483;28;20926;-57
2022/06/26 06:03:13;;;;;;;9.10;5.07;;;;;;;;;;5032593;28;20442;-58
2022/06/26 06:05:39;;;;;;;6.00;5.50;;;;;;;;;;5032786;28;20767;-58
2022/06/26 06:08:05;;;;;;;5.30;5.00;;;;;;;;;;5032647;28;20414;-58
2022/06/26 06:10:31;;;;;;;5.90;5.10;;;;;;;;;;5032307;28;20484;-58
2022/06/26 06:12:57;;;;;;;5.73;5.30;;;;;;;;;;5032520;28;20431;-58
2022/06/26 06:15:23;;;;;;;5.03;4.50;;;;;;;;;;5032551;28;20807;-57
2022/06/26 06:17:49;;;;;;;7.57;4.67;;;;;;;;;;5032402;28;20506;-58
2022/06/26 06:20:20;;;;;;;4.90;4.40;;;;;;;;;;5032380;28;20820;-58
2022/06/26 06:22:47;;;;;;;4.53;4.13;;;;;;;;;;5032375;28;20505;-58
2022/06/26 06:25:13;;;;;;;4.90;4.50;;;;;;;;;;5032332;28;20402;-58
2022/06/26 06:27:39;;;;;;;4.77;4.20;;;;;;;;;;5032346;28;20405;-58
2022/06/26 06:30:06;;;;;;;4.20;3.90;;;;;;;;;;5032026;28;20414;-58
2022/06/26 06:32:32;;;;;;;4.87;4.47;;;;;;;;;;5031854;28;20519;-58
2022/06/26 06:34:58;;;;;;;4.10;3.77;;;;;;;;;;5031757;28;20401;-58
2022/06/26 06:37:24;;;;;;;3.60;3.30;;;;;;;;;;5032215;28;20398;-58
2022/06/26 06:39:50;;;;;;;3.40;3.07;;;;;;;;;;5032397;28;20407;-58
2022/06/26 06:42:16;;;;;;;6.07;3.30;;;;;;;;;;5031911;28;20454;-58
2022/06/26 06:44:42;;;;;;;3.90;3.60;;;;;;;;;;5032064;28;20476;-58
2022/06/26 06:47:09;;;;;;;3.33;2.80;;;;;;;;;;5032064;28;20878;-58
2022/06/26 06:49:35;;;;;;;3.00;2.80;;;;;;;;;;5031965;28;20411;-58
2022/06/26 06:52:01;;;;;;;4.50;3.53;;;;;;;;;;5031666;28;20511;-58
2022/06/26 06:54:27;;;;;;;4.13;3.70;;;;;;;;;;5031981;28;20407;-58
2022/06/26 06:56:53;;;;;;;4.97;4.47;;;;;;;;;;5031898;28;20414;-58
2022/06/26 06:59:19;;;;;;;4.33;4.03;;;;;;;;;;5031752;28;20644;-58
2022/06/26 07:01:45;;;;;;;4.70;4.30;;;;;;;;;;5031492;28;20443;-58
2022/06/26 07:04:12;;;;;;;3.73;3.43;;;;;;;;;;5031838;28;20473;-58
2022/06/26 07:06:38;;;;;;;4.03;3.73;;;;;;;;;;5031956;28;20435;-58
2022/06/26 07:09:05;;;;;;;5.50;3.63;;;;;;;;;;5031707;28;20435;-58
2022/06/26 07:11:31;;;;;;;4.17;3.57;;;;;;;;;;5031392;28;21036;-58
2022/06/26 07:13:57;;;;;;;6.80;4.37;;;;;;;;;;5031587;28;20410;-58
2022/06/26 07:16:23;;;;;;;7.03;4.40;;;;;;;;;;5031739;28;20406;-58
2022/06/26 07:18:49;;;;;;;4.47;4.00;;;;;;;;;;5031740;28;20435;-57
2022/06/26 07:21:15;;;;;;;4.50;2.97;;;;;;;;;;5031392;28;20466;-58
2022/06/26 07:23:41;;;;;;;4.57;3.80;;;;;;;;;;5031855;28;20790;-57
2022/06/26 07:26:07;;;;;;;4.37;4.07;;;;;;;;;;5031689;28;20453;-57
2022/06/26 07:28:33;;;;;;;7.27;4.77;;;;;;;;;;5031976;28;20415;-58
2022/06/26 07:31:00;;;;;;;5.90;5.20;;;;;;;;;;5031373;28;20471;-58
2022/06/26 07:36:10;;;;;;;7.93;7.33;;;;;;;;;;5031577;28;20412;-57
2022/06/26 07:38:36;;;;;;;7.53;6.83;;;;;;;;;;5031532;28;20400;-57
2022/06/26 07:41:02;;;;;;;8.47;7.67;;;;;;;;;;5031048;28;20403;-57
2022/06/26 07:43:28;;;;;;;8.03;7.43;;;;;;;;;;5031694;28;20401;-57
2022/06/26 07:45:56;;;;;;;6.83;6.33;;;;;;;;;;5032972;28;20399;-58
2022/06/26 07:48:22;;;;;;;6.67;6.10;;;;;;;;;;5035277;28;20917;-57
2022/06/26 07:50:48;;;;;;;7.37;6.70;;;;;;;;;;5034879;28;20399;-57
2022/06/26 07:53:14;;;;;;;7.13;6.43;;;;;;;;;;5035107;28;20455;-57
2022/06/26 07:55:39;;;;;;;7.90;6.07;;;;;;;;;;5035167;28;20701;-56
2022/06/26 07:58:06;;;;;;;6.83;6.23;;;;;;;;;;5035089;28;20907;-57
2022/06/26 08:00:32;;;;;;;6.30;5.80;;;;;;;;;;5034999;28;20403;-58
2022/06/26 08:03:13;;;;;;;7.07;6.37;;;;;;;;;;5034918;28;20547;-58
2022/06/26 08:05:40;;;;;;;6.20;5.70;;;;;;;;;;5035053;28;20426;-58
2022/06/26 08:08:07;;;;;;;6.10;5.47;;;;;;;;;;5034898;28;20418;-57
2022/06/26 08:10:33;;;;;;;5.83;4.13;;;;;;;;;;5034565;28;20405;-57
2022/06/26 08:12:59;;;;;;;7.30;4.50;;;;;;;;;;5034728;28;20533;-57
2022/06/26 08:15:25;;;;;;;5.07;4.67;;;;;;;;;;5034986;28;20494;-58
2022/06/26 08:17:51;;;;;;;5.40;3.90;;;;;;;;;;5034773;28;20464;-58
2022/06/26 08:20:17;;;;;;;4.37;3.97;;;;;;;;;;5034439;28;20784;-58
2022/06/26 08:22:43;;;;;;;4.03;3.60;;;;;;;;;;5034532;28;20446;-57
2022/06/26 08:25:09;;;;;;;3.30;3.00;;;;;;;;;;5034546;28;20427;-58
2022/06/26 08:27:35;;;;;;;3.77;3.47;;;;;;;;;;5038934;28;20522;-57
2022/06/26 08:30:01;;;;;;;3.20;2.97;;;;;;;;;;5034243;28;20401;-58
2022/06/26 08:32:27;;;;;;;3.53;3.33;;;;;;;;;;5034110;28;20499;-57
2022/06/26 08:34:53;;;;;;;3.90;3.17;;;;;;;;;;5034386;28;20916;-58
2022/06/26 08:37:19;;;;;;;3.80;3.50;;;;;;;;;;5034144;28;20559;-58
2022/06/26 08:39:45;;;;;;;3.90;3.70;;;;;;;;;;5034211;28;20409;-58
2022/06/26 08:42:12;;;;;;;3.20;2.90;;;;;;;;;;5033073;28;20417;-58
2022/06/26 08:44:45;;;;;;;4.43;3.63;;;;;;;;;;5032340;28;20409;-58
2022/06/26 08:47:12;;;;;;;5.77;3.30;;;;;;;;;;5032295;28;20491;-58
2022/06/26 08:49:38;;;;;;;4.40;3.80;;;;;;;;;;5032719;28;20419;-58
2022/06/26 08:52:04;;;;;;;3.90;3.50;;;;;;;;;;5032978;28;20457;-57
2022/06/26 08:54:31;;;;;;;5.60;3.80;;;;;;;;;;5034099;28;20424;-57
2022/06/26 08:56:57;;;;;;;3.53;3.20;;;;;;;;;;5033215;28;20854;-58
2022/06/26 08:59:24;;;;;;;3.87;3.50;;;;;;;;;;5034261;28;20811;-57
2022/06/26 09:01:50;;;;;;;3.67;3.30;;;;;;;;;;5033607;28;20859;-58
2022/06/26 09:04:16;;;;;;;6.23;3.60;;;;;;;;;;5033892;28;20410;-58
2022/06/26 09:06:43;;;;;;;4.40;3.57;;;;;;;;;;5033938;28;20412;-58
2022/06/26 09:09:17;;;;;;;3.80;3.07;;;;;;;;;;5033722;28;20405;-58
2022/06/26 09:11:43;;;;;;;4.70;3.33;;;;;;;;;;5033430;28;20461;-57
2022/06/26 09:14:10;;;;;;;4.23;3.10;;;;;;;;;;5033693;28;20464;-57
2022/06/26 09:16:39;;;;;;;3.07;2.87;;;;;;;;;;5032848;28;20412;-58
2022/06/26 09:19:20;;;;;;;2.77;2.33;;;;;;;;;;5033367;28;20401;-58
2022/06/26 09:21:47;;;;;;;1.90;1.80;;;;;;;;;;5033253;28;20427;-57
2022/06/26 09:24:14;;;;;;;4.77;1.90;;;;;;;;;;5033746;28;20494;-58
2022/06/26 09:26:40;;;;;;;3.33;2.10;;;;;;;;;;5033436;28;20884;-57
2022/06/26 09:29:14;;;;;;;2.07;1.80;;;;;;;;;;5033280;28;20409;-57
2022/06/26 09:31:40;;;;;;;2.10;2.00;;;;;;;;;;5032633;28;20464;-57
2022/06/26 09:34:07;;;;;;;1.60;1.50;;;;;;;;;;5033436;28;20841;-58
2022/06/26 09:36:34;;;;;;;2.90;1.80;;;;;;;;;;5033320;28;20411;-58
2022/06/26 09:39:00;;;;;;;3.47;2.20;;;;;;;;;;5033261;28;20925;-58
2022/06/26 09:41:33;;;;;;;2.30;2.10;;;;;;;;;;5032780;28;20437;-58
2022/06/26 09:43:59;;;;;;;1.60;1.50;;;;;;;;;;5033042;28;20458;-58
2022/06/26 09:46:30;;;;;;;3.43;2.30;;;;;;;;;;5033060;28;20405;-58
2022/06/26 09:48:57;;;;;;;2.10;1.90;;;;;;;;;;5033044;28;20413;-58
2022/06/26 09:51:23;;;;;;;2.33;1.80;;;;;;;;;;5032583;28;20473;-57
2022/06/26 09:53:49;;;;;;;3.80;2.10;;;;;;;;;;5032861;28;20414;-57
2022/06/26 09:56:16;;;;;;;1.63;1.53;;;;;;;;;;5032853;28;20406;-58
2022/06/26 09:58:42;;;;;;;3.30;2.03;;;;;;;;;;5032867;28;20532;-58
2022/06/26 10:06:38;;;;;;;3.80;1.90;;;;;;;;;;5033086;28;20828;-57
2022/06/26 10:09:07;;;;;;;2.43;2.03;;;;;;;;;;5031662;28;20516;-58
2022/06/26 10:11:34;;;;;;;2.30;2.10;;;;;;;;;;5032205;28;20458;-57
2022/06/26 10:14:05;;;;;;;2.27;2.10;;;;;;;;;;5032620;28;20398;-58
2022/06/26 10:16:31;;;;;;;2.23;1.97;;;;;;;;;;5032498;28;20411;-57
2022/06/26 10:18:57;;;;;;;2.00;1.90;;;;;;;;;;5032616;28;20492;-58
2022/06/26 10:21:23;;;;;;;3.57;2.27;;;;;;;;;;5032050;28;20429;-58
2022/06/26 10:23:49;;;;;;;1.77;1.67;;;;;;;;;;5032386;28;20460;-58
2022/06/26 10:26:17;;;;;;;2.33;2.10;;;;;;;;;;5032494;28;20414;-58
2022/06/26 10:28:56;;;;;;;1.60;1.50;;;;;;;;;;5031000;28;20478;-58
2022/06/26 10:31:22;;;;;;;2.90;1.80;;;;;;;;;;5032593;28;20463;-59
2022/06/26 10:33:48;;;;;;;1.83;1.60;;;;;;;;;;5032289;28;20402;-59
2022/06/26 10:36:21;;;;;;;2.73;1.60;;;;;;;;;;5032276;28;20406;-59
2022/06/26 10:38:47;;;;;;;1.73;1.50;;;;;;;;;;5032205;28;20426;-59
2022/06/26 10:44:14;;;;;;;1.73;1.60;;;;;;;;;;5032432;28;20489;-59
2022/06/26 10:46:48;;;;;;;3.33;1.53;;;;;;;;;;5031996;28;20417;-59
2022/06/26 10:49:14;;;;;;;1.60;1.50;;;;;;;;;;5031891;28;20401;-59
2022/06/26 10:51:44;;;;;;;1.93;1.83;;;;;;;;;;5031985;28;20462;-59
2022/06/26 10:54:20;;;;;;;3.60;1.63;;;;;;;;;;5031929;28;20967;-59
2022/06/26 10:56:47;;;;;;;3.00;1.60;;;;;;;;;;5032012;28;20829;-59
2022/06/26 10:59:17;;;;;;;1.80;1.70;;;;;;;;;;5031987;28;20407;-59
2022/06/26 11:01:43;;;;;;;2.00;1.80;;;;;;;;;;5031703;28;21018;-59
2022/06/26 11:04:09;;;;;;;2.13;1.93;;;;;;;;;;5031841;28;20409;-59
2022/06/26 11:06:39;;;;;;;1.90;1.80;;;;;;;;;;5031817;28;20907;-59
2022/06/26 11:09:05;;;;;;;2.17;1.37;;;;;;;;;;5031761;28;20404;-59
2022/06/26 11:11:32;;;;;;;1.70;1.60;;;;;;;;;;5031222;28;20867;-59
2022/06/26 11:14:02;;;;;;;1.60;1.50;;;;;;;;;;5032411;28;20410;-59
2022/06/26 11:16:29;;;;;;;1.63;1.53;;;;;;;;;;5032537;28;20394;-59
2022/06/26 11:18:55;;;;;;;2.17;1.77;;;;;;;;;;5032226;28;20890;-59
2022/06/26 11:21:21;;;;;;;1.87;1.77;;;;;;;;;;5035358;28;20541;-60
2022/06/26 11:23:51;;;;;;;1.30;1.20;;;;;;;;;;5035753;28;20903;-59
2022/06/26 11:26:19;;;;;;;2.37;1.70;;;;;;;;;;5035556;28;20489;-59
2022/06/26 11:28:45;;;;;;;3.40;1.63;;;;;;;;;;5036093;28;20806;-60
2022/06/26 11:31:15;;;;;;;2.70;1.90;;;;;;;;;;5035279;28;20800;-60
2022/06/26 11:33:41;;;;;;;2.27;1.60;;;;;;;;;;5035597;28;20402;-59
2022/06/26 11:36:09;;;;;;;5.50;1.63;;;;;;;;;;5036358;28;20402;-60
2022/06/26 11:38:36;;;;;;;1.77;1.67;;;;;;;;;;5036233;28;20773;-59
2022/06/26 11:41:03;;;;;;;2.27;1.80;;;;;;;;;;5035522;28;20406;-60
2022/06/26 11:43:30;;;;;;;3.10;2.60;;;;;;;;;;5035355;28;20844;-60
2022/06/26 11:45:57;;;;;;;1.70;1.60;;;;;;;;;;5035401;28;20488;-59
2022/06/26 11:48:23;;;;;;;2.97;1.70;;;;;;;;;;5035705;28;20413;-60
2022/06/26 11:50:56;;;;;;;2.33;1.70;;;;;;;;;;5033899;28;20418;-59
2022/06/26 11:53:23;;;;;;;1.77;1.40;;;;;;;;;;5035338;28;20394;-60
2022/06/26 11:55:57;;;;;;;1.50;1.40;;;;;;;;;;5035812;28;20405;-60
2022/06/26 11:58:24;;;;;;;1.50;1.40;;;;;;;;;;5035666;28;20910;-60
2022/06/26 12:00:51;;;;;;;3.30;1.93;;;;;;;;;;5036201;28;20417;-60
2022/06/26 12:03:18;;;;;;;1.53;1.37;;;;;;;;;;5035265;28;20436;-60
2022/06/26 12:05:45;;;;;;;2.30;1.67;;;;;;;;;;5035409;28;20444;-59
2022/06/26 12:08:16;;;;;;;1.50;1.40;;;;;;;;;;5035423;28;20400;-59
2022/06/26 12:10:42;;;;;;;2.00;1.80;;;;;;;;;;5035017;28;20398;-59
2022/06/26 12:13:08;;;;;;;2.10;1.90;;;;;;;;;;5034452;28;20499;-59
2022/06/26 12:15:35;;;;;;;2.23;2.03;;;;;;;;;;5034829;28;20491;-59
2022/06/26 12:18:02;;;;;;;1.97;1.87;;;;;;;;;;5034741;28;20405;-59
2022/06/26 12:20:34;;;;;;;2.83;2.10;;;;;;;;;;5034221;28;20966;-59
2022/06/26 12:23:00;;;;;;;2.30;2.10;;;;;;;;;;5034325;28;20427;-59
2022/06/26 12:25:30;;;;;;;2.00;1.90;;;;;;;;;;5032821;28;20405;-59
2022/06/26 12:27:57;;;;;;;1.90;1.70;;;;;;;;;;5034595;28;20400;-59
2022/06/26 12:30:25;;;;;;;2.83;1.80;;;;;;;;;;5033814;28;20398;-59
2022/06/26 12:32:51;;;;;;;3.47;2.07;;;;;;;;;;5033371;28;20449;-59
2022/06/26 12:35:17;;;;;;;1.83;1.73;;;;;;;;;;5034325;28;20410;-59
2022/06/26 12:37:43;;;;;;;2.03;1.93;;;;;;;;;;5034489;28;20402;-59
2022/06/26 12:40:10;;;;;;;4.03;1.87;;;;;;;;;;5034427;28;20481;-59
2022/06/26 12:42:36;;;;;;;2.00;1.90;;;;;;;;;;5034229;28;20429;-59
2022/06/26 12:45:02;;;;;;;3.10;2.00;;;;;;;;;;5034686;28;20409;-59
2022/06/26 12:47:28;;;;;;;2.50;2.30;;;;;;;;;;5034325;28;20410;-59
2022/06/26 12:49:54;;;;;;;1.73;1.63;;;;;;;;;;5034125;28;20417;-59
2022/06/26 12:52:20;;;;;;;1.67;1.57;;;;;;;;;;5033685;28;20479;-58
2022/06/26 12:54:46;;;;;;;1.93;1.83;;;;;;;;;;5034050;28;20956;-59
2022/06/26 12:57:12;;;;;;;2.80;2.60;;;;;;;;;;5034097;28;20402;-59
2022/06/26 12:59:38;;;;;;;3.47;1.83;;;;;;;;;;5033938;28;20410;-59
2022/06/26 13:02:04;;;;;;;2.90;2.13;;;;;;;;;;5034073;28;20442;-59
2022/06/26 13:04:30;;;;;;;4.97;2.50;;;;;;;;;;5034159;28;20756;-59
2022/06/26 13:06:56;;;;;;;4.07;1.87;;;;;;;;;;5033732;28;20429;-59
2022/06/26 13:09:22;;;;;;;2.47;2.30;;;;;;;;;;5033719;28;20417;-59
2022/06/26 13:11:47;;;;;;;2.27;2.17;;;;;;;;;;5033413;28;20463;-59
2022/06/26 13:14:13;;;;;;;1.97;1.87;;;;;;;;;;5033703;28;20430;-58
2022/06/26 13:16:40;;;;;;;7.70;2.37;;;;;;;;;;5033720;28;20885;-59
2022/06/26 13:19:07;;;;;;;6.10;2.40;;;;;;;;;;5033684;28;20399;-60
2022/06/26 13:21:33;;;;;;;2.20;2.10;;;;;;;;;;5033071;28;20426;-59
2022/06/26 13:24:00;;;;;;;4.50;2.77;;;;;;;;;;5033539;28;20433;-59
2022/06/26 13:26:26;;;;;;;3.50;2.40;;;;;;;;;;5033702;28;20406;-59
2022/06/26 13:28:51;;;;;;;4.30;1.93;;;;;;;;;;5033519;28;20425;-59
2022/06/26 13:31:18;;;;;;;2.03;1.93;;;;;;;;;;5032989;28;20523;-59
2022/06/26 13:33:44;;;;;;;1.80;1.70;;;;;;;;;;5033106;28;20472;-59
2022/06/26 13:36:10;;;;;;;2.20;2.03;;;;;;;;;;5033358;28;20403;-58
2022/06/26 13:38:36;;;;;;;2.50;1.90;;;;;;;;;;5033488;28;20398;-60
2022/06/26 13:41:02;;;;;;;3.27;2.20;;;;;;;;;;5032875;28;20460;-60
2022/06/26 13:43:28;;;;;;;7.93;2.00;;;;;;;;;;5033133;28;20862;-60
2022/06/26 13:45:54;;;;;;;4.33;2.20;;;;;;;;;;5033030;28;20399;-58
2022/06/26 13:48:21;;;;;;;2.80;2.60;;;;;;;;;;5033033;28;20402;-58
2022/06/26 13:50:47;;;;;;;2.23;2.13;;;;;;;;;;5032550;28;20445;-59
2022/06/26 13:53:13;;;;;;;3.23;2.13;;;;;;;;;;5032984;28;20933;-59
2022/06/26 13:55:39;;;;;;;2.70;2.50;;;;;;;;;;5032911;28;20414;-60
2022/06/26 13:58:05;;;;;;;2.50;2.23;;;;;;;;;;5033014;28;20414;-59
2022/06/26 14:00:31;;;;;;;2.50;2.13;;;;;;;;;;5032514;28;20883;-59
2022/06/26 14:02:57;;;;;;;4.50;2.07;;;;;;;;;;5032917;28;20493;-59
2022/06/26 14:05:23;;;;;;;2.37;2.17;;;;;;;;;;5033016;28;20430;-60
2022/06/26 14:07:50;;;;;;;2.60;2.40;;;;;;;;;;5032931;28;20489;-59
2022/06/26 14:10:16;;;;;;;2.60;2.40;;;;;;;;;;5036975;28;20422;-59
2022/06/26 14:12:42;;;;;;;3.87;2.10;;;;;;;;;;5032445;28;20469;-59
2022/06/26 14:15:08;;;;;;;2.23;2.07;;;;;;;;;;5032520;28;20398;-59
2022/06/26 14:17:39;;;;;;;2.40;2.20;;;;;;;;;;5032584;28;20398;-59
2022/06/26 14:20:05;;;;;;;2.07;1.87;;;;;;;;;;5032651;28;20413;-59
2022/06/26 14:28:00;;;;;;;2.43;2.23;;;;;;;;;;5033146;28;20401;-59
2022/06/26 14:30:26;;;;;;;3.93;2.00;;;;;;;;;;5032709;28;20405;-59
2022/06/26 14:32:52;;;;;;;2.60;2.17;;;;;;;;;;5032564;28;21261;-59
2022/06/26 14:35:19;;;;;;;2.37;2.20;;;;;;;;;;5032473;28;20532;-59
2022/06/26 14:37:45;;;;;;;2.60;2.40;;;;;;;;;;5032082;28;20395;-59
2022/06/26 14:40:11;;;;;;;2.70;2.50;;;;;;;;;;5031714;28;20402;-59
2022/06/26 14:42:38;;;;;;;2.80;2.60;;;;;;;;;;5031946;28;20432;-59
2022/06/26 14:45:04;;;;;;;2.80;2.60;;;;;;;;;;5031971;28;20437;-59
2022/06/26 14:47:30;;;;;;;2.27;2.10;;;;;;;;;;5032164;28;20410;-59
2022/06/26 14:49:56;;;;;;;2.57;2.30;;;;;;;;;;5031834;28;20479;-59
2022/06/26 14:52:23;;;;;;;2.80;2.40;;;;;;;;;;5031520;28;20471;-58
2022/06/26 14:54:49;;;;;;;2.67;2.47;;;;;;;;;;5031082;28;20836;-59